createdAt,value
2023-03-20T00:00:24.964Z,98064.17
2023-03-20T00:03:14.584Z,98059.94
2023-03-20T00:05:44.661Z,98055.08
2023-03-20T00:08:14.515Z,98050.88
2023-03-20T00:10:47.155Z,98052.91
2023-03-20T00:13:26.655Z,98050.70
2023-03-20T00:15:58.540Z,98053.77
2023-03-20T00:18:28.003Z,98057.58
2023-03-20T00:20:57.944Z,98055.98
2023-03-20T00:23:28.562Z,98058.77
2023-03-20T00:25:58.765Z,98058.62
2023-03-20T00:28:31.064Z,98057.84
2023-03-20T00:31:00.696Z,98053.63
2023-03-20T00:33:31.965Z,98053.79
2023-03-20T00:36:01.995Z,98051.35
2023-03-20T00:38:31.881Z,98049.58
2023-03-20T00:41:03.062Z,98044.61
2023-03-20T00:43:33.753Z,98048.61
2023-03-20T00:46:08.328Z,98047.05
2023-03-20T00:48:42.841Z,98044.46
2023-03-20T00:51:11.974Z,98047.17
2023-03-20T00:53:41.308Z,98040.08
2023-03-20T00:56:35.966Z,98042.39
2023-03-20T00:59:05.797Z,98041.55
2023-03-20T01:01:36.688Z,98040.54
2023-03-20T01:04:17.275Z,98047.96
2023-03-20T01:06:47.234Z,98049.04
2023-03-20T01:09:20.215Z,98044.96
2023-03-20T01:11:49.544Z,98044.45
2023-03-20T01:14:19.998Z,98043.84
2023-03-20T01:16:50.557Z,98041.41
2023-03-20T01:19:20.370Z,98037.35
2023-03-20T01:21:49.882Z,98037.23
2023-03-20T01:24:20.181Z,98040.72
2023-03-20T01:26:52.058Z,98046.20
2023-03-20T01:29:25.113Z,98048.19
2023-03-20T01:31:55.624Z,98047.44
2023-03-20T01:34:26.444Z,98056.77
2023-03-20T01:36:59.778Z,98053.84
2023-03-20T01:39:37.237Z,98050.89
2023-03-20T01:42:07.923Z,98051.70
2023-03-20T01:44:38.632Z,98053.85
2023-03-20T01:47:26.542Z,98057.23
2023-03-20T01:50:18.232Z,98056.23
2023-03-20T01:53:14.617Z,98055.92
2023-03-20T01:55:52.058Z,98051.46
2023-03-20T01:58:31.910Z,98045.69
2023-03-20T02:01:01.853Z,98047.92
2023-03-20T02:03:32.803Z,98052.73
2023-03-20T02:06:24.434Z,98052.05
2023-03-20T02:09:13.049Z,98042.52
2023-03-20T02:11:48.149Z,98045.90
2023-03-20T02:14:21.353Z,98045.88
2023-03-20T02:17:00.669Z,98041.18
2023-03-20T02:20:10.921Z,98034.98
2023-03-20T02:23:09.055Z,98035.17
2023-03-20T02:26:28.250Z,98035.65
2023-03-20T02:29:47.405Z,98037.34
2023-03-20T02:32:16.803Z,98040.27
2023-03-20T02:35:10.392Z,98038.88
2023-03-20T02:37:43.996Z,98040.27
2023-03-20T02:40:44.054Z,98033.28
2023-03-20T02:43:34.702Z,98027.39
2023-03-20T02:46:13.702Z,98022.39
2023-03-20T02:49:11.521Z,98027.86
2023-03-20T02:52:00.303Z,98028.79
2023-03-20T02:54:42.674Z,98021.65
2023-03-20T02:57:21.124Z,98017.92
2023-03-20T03:00:09.519Z,98015.61
2023-03-20T03:03:03.312Z,98015.21
2023-03-20T03:05:46.222Z,98009.59
2023-03-20T03:08:20.973Z,98010.09
2023-03-20T03:10:57.460Z,98003.32
2023-03-20T03:13:32.864Z,97999.23
2023-03-20T03:16:14.208Z,97997.86
2023-03-20T03:18:49.942Z,97998.34
2023-03-20T03:21:20.835Z,97996.89
2023-03-20T03:23:50.614Z,97993.80
2023-03-20T03:26:28.642Z,97996.38
2023-03-20T03:29:16.811Z,98000.89
2023-03-20T03:31:54.175Z,97998.52
2023-03-20T03:34:32.005Z,97999.99
2023-03-20T03:37:21.765Z,98001.50
2023-03-20T03:40:05.082Z,97999.07
2023-03-20T03:43:13.692Z,97989.82
2023-03-20T03:45:56.290Z,97997.20
2023-03-20T03:48:37.105Z,98001.40
2023-03-20T03:51:26.416Z,98000.59
2023-03-20T03:54:25.660Z,98007.56
2023-03-20T03:57:17.158Z,98004.07
2023-03-20T03:59:52.987Z,98004.01
2023-03-20T04:02:24.758Z,98006.65
2023-03-20T04:04:57.038Z,98006.52
2023-03-20T04:07:29.484Z,98006.11
2023-03-20T04:09:59.612Z,98005.04
2023-03-20T04:12:41.279Z,97999.21
2023-03-20T04:15:16.528Z,97996.02
2023-03-20T04:17:45.945Z,97993.55
2023-03-20T04:20:17.839Z,97994.61
2023-03-20T04:22:52.455Z,98000.31
2023-03-20T04:25:27.076Z,97998.44
2023-03-20T04:27:58.390Z,98001.81
2023-03-20T04:30:58.952Z,98001.55
2023-03-20T04:33:48.282Z,98007.20
2023-03-20T04:36:48.588Z,98010.19
2023-03-20T04:39:20.859Z,98012.85
2023-03-20T04:41:55.336Z,98015.48
2023-03-20T04:44:25.181Z,98016.16
2023-03-20T04:46:54.467Z,98017.48
2023-03-20T04:49:24.545Z,98020.48
2023-03-20T04:51:57.367Z,98024.17
2023-03-20T04:54:47.949Z,98029.23
2023-03-20T04:57:19.907Z,98027.86
2023-03-20T04:59:49.915Z,98028.27
2023-03-20T05:02:19.739Z,98029.25
2023-03-20T05:04:49.707Z,98028.21
2023-03-20T05:07:19.321Z,98027.11
2023-03-20T05:10:02.375Z,98028.75
2023-03-20T05:12:34.789Z,98029.31
2023-03-20T05:15:27.897Z,98030.19
2023-03-20T05:18:50.263Z,98037.52
2023-03-20T05:21:39.473Z,98041.95
2023-03-20T05:24:29.510Z,98043.53
2023-03-20T05:27:31.158Z,98044.40
2023-03-20T05:30:32.932Z,98041.05
2023-03-20T05:33:05.124Z,98039.86
2023-03-20T05:35:41.645Z,98038.36
2023-03-20T05:38:29.736Z,98040.53
2023-03-20T05:41:23.087Z,98043.02
2023-03-20T05:44:22.324Z,98042.81
2023-03-20T05:47:24.206Z,98039.23
2023-03-20T05:50:17.904Z,98034.48
2023-03-20T05:52:59.213Z,98034.86
2023-03-20T05:55:51.767Z,98037.08
2023-03-20T05:58:39.501Z,98037.73
2023-03-20T06:01:22.037Z,98033.05
2023-03-20T06:04:03.756Z,98029.65
2023-03-20T06:07:02.200Z,98026.75
2023-03-20T06:09:32.084Z,98027.75
2023-03-20T06:12:03.103Z,98032.60
2023-03-20T06:14:32.728Z,98039.70
2023-03-20T06:17:05.858Z,98037.25
2023-03-20T06:19:35.140Z,98040.73
2023-03-20T06:22:05.853Z,98040.52
2023-03-20T06:24:36.643Z,98050.70
2023-03-20T06:27:09.281Z,98041.37
2023-03-20T06:29:39.210Z,98044.22
2023-03-20T06:32:34.192Z,98051.00
2023-03-20T06:35:29.782Z,98045.46
2023-03-20T06:38:20.581Z,98047.44
2023-03-20T06:40:57.668Z,98049.69
2023-03-20T06:43:38.288Z,98052.09
2023-03-20T06:46:11.278Z,98048.42
2023-03-20T06:48:45.050Z,98046.36
2023-03-20T06:51:14.589Z,98046.89
2023-03-20T06:53:52.487Z,98037.39
2023-03-20T06:56:26.316Z,98036.40
2023-03-20T06:58:57.574Z,98034.88
2023-03-20T07:01:28.616Z,98039.36
2023-03-20T07:04:03.624Z,98041.71
2023-03-20T07:06:41.687Z,98038.64
2023-03-20T07:09:11.817Z,98038.66
2023-03-20T07:11:45.664Z,98041.72
2023-03-20T07:14:16.079Z,98047.33
2023-03-20T07:16:57.099Z,98050.95
2023-03-20T07:19:28.156Z,98048.81
2023-03-20T07:22:02.812Z,98049.82
2023-03-20T07:24:45.391Z,98041.47
2023-03-20T07:27:21.321Z,98045.68
2023-03-20T07:29:51.129Z,98054.04
2023-03-20T07:32:21.275Z,98056.88
2023-03-20T07:34:53.377Z,98054.24
2023-03-20T07:37:26.339Z,98052.08
2023-03-20T07:40:29.313Z,98050.15
2023-03-20T07:43:06.391Z,98051.14
2023-03-20T07:45:58.343Z,98050.60
2023-03-20T07:48:28.670Z,98047.16
2023-03-20T07:50:57.899Z,98043.58
2023-03-20T07:53:28.978Z,98042.77
2023-03-20T07:55:59.838Z,98042.91
2023-03-20T07:58:31.399Z,98043.91
2023-03-20T08:01:01.215Z,98043.42
2023-03-20T08:03:30.906Z,98043.02
2023-03-20T08:06:01.680Z,98039.33
2023-03-20T08:08:31.409Z,98039.04
2023-03-20T08:11:02.321Z,98043.80
2023-03-20T08:13:32.298Z,98042.23
2023-03-20T08:16:02.813Z,98040.01
2023-03-20T08:18:32.260Z,98042.95
2023-03-20T08:21:02.718Z,98039.39
2023-03-20T08:23:32.153Z,98033.39
2023-03-20T08:26:02.045Z,98033.72
2023-03-20T08:28:46.739Z,98033.08
2023-03-20T08:31:18.371Z,98035.55
2023-03-20T08:33:49.003Z,98035.22
2023-03-20T08:36:21.385Z,98032.57
2023-03-20T08:38:51.362Z,98028.34
2023-03-20T08:41:20.752Z,98031.51
2023-03-20T08:43:49.894Z,98026.10
2023-03-20T08:46:19.631Z,98021.77
2023-03-20T08:48:49.608Z,98021.38
2023-03-20T08:51:21.855Z,98016.79
2023-03-20T08:53:51.286Z,98014.91
2023-03-20T08:56:46.449Z,98014.13
2023-03-20T08:59:16.734Z,98011.09
2023-03-20T09:01:50.132Z,98009.38
2023-03-20T09:04:19.724Z,98005.30
2023-03-20T09:06:50.828Z,98003.27
2023-03-20T09:09:21.948Z,98002.48
2023-03-20T09:11:52.588Z,98003.66
2023-03-20T09:14:22.418Z,98003.27
2023-03-20T09:16:52.238Z,98002.39
2023-03-20T09:19:21.440Z,98000.92
2023-03-20T09:21:52.058Z,97998.53
2023-03-20T09:24:22.071Z,97996.23
2023-03-20T09:26:52.820Z,97999.04
2023-03-20T09:29:22.191Z,97996.85
2023-03-20T09:31:54.815Z,98001.77
2023-03-20T09:34:24.738Z,98003.89
2023-03-20T09:36:54.200Z,98002.89
2023-03-20T09:39:25.082Z,98002.77
2023-03-20T09:41:57.555Z,98002.17
2023-03-20T09:44:51.398Z,97998.61
2023-03-20T09:47:36.397Z,97998.42
2023-03-20T09:50:56.929Z,97990.58
2023-03-20T09:53:38.474Z,97987.98
2023-03-20T09:56:22.430Z,97983.58
2023-03-20T09:58:57.691Z,97976.63
2023-03-20T10:01:34.044Z,97973.44
2023-03-20T10:04:12.198Z,97976.34
2023-03-20T10:06:41.959Z,97977.21
2023-03-20T10:09:22.978Z,97977.38
2023-03-20T10:12:27.831Z,97976.89
2023-03-20T10:15:41.332Z,97979.37
2023-03-20T10:18:30.250Z,97970.17
2023-03-20T10:21:08.002Z,97965.86
2023-03-20T10:23:49.450Z,97964.78
2023-03-20T10:26:21.884Z,97959.00
2023-03-20T10:29:18.458Z,97958.64
2023-03-20T10:32:07.583Z,97952.31
2023-03-20T10:35:18.561Z,97946.19
2023-03-20T10:37:51.932Z,97949.71
2023-03-20T10:40:36.665Z,97944.66
2023-03-20T10:43:18.219Z,97945.64
2023-03-20T10:46:13.949Z,97949.95
2023-03-20T10:49:12.397Z,97946.71
2023-03-20T10:51:55.139Z,97940.55
2023-03-20T10:54:29.127Z,97936.60
2023-03-20T10:57:01.045Z,97928.80
2023-03-20T10:59:50.986Z,97928.42
2023-03-20T11:02:23.719Z,97924.30
2023-03-20T11:04:53.752Z,97914.13
2023-03-20T11:07:38.344Z,97910.17
2023-03-20T11:10:17.516Z,97905.52
2023-03-20T11:12:49.882Z,97901.00
2023-03-20T11:15:48.358Z,97897.90
2023-03-20T11:18:24.594Z,97899.48
2023-03-20T11:20:56.961Z,97895.05
2023-03-20T11:23:31.836Z,97889.88
2023-03-20T11:26:12.281Z,97887.05
2023-03-20T11:28:51.707Z,97890.61
2023-03-20T11:31:31.274Z,97886.72
2023-03-20T11:34:27.126Z,97884.42
2023-03-20T11:37:09.759Z,97884.86
2023-03-20T11:39:58.991Z,97879.57
2023-03-20T11:42:31.404Z,97885.30
2023-03-20T11:45:03.873Z,97884.33
2023-03-20T11:47:36.883Z,97879.81
2023-03-20T11:50:25.830Z,97879.81
2023-03-20T11:52:55.150Z,97877.38
2023-03-20T11:55:33.373Z,97874.31
2023-03-20T11:58:13.503Z,97871.60
2023-03-20T12:00:43.655Z,97868.32
2023-03-20T12:03:37.489Z,97868.61
2023-03-20T12:06:14.837Z,97858.57
2023-03-20T12:08:53.082Z,97856.15
2023-03-20T12:11:54.984Z,97853.38
2023-03-20T12:14:29.183Z,97851.36
2023-03-20T12:17:35.713Z,97851.98
2023-03-20T12:20:21.493Z,97847.25
2023-03-20T12:23:01.015Z,97844.90
2023-03-20T12:25:55.726Z,97842.77
2023-03-20T12:28:29.004Z,97830.52
2023-03-20T12:31:10.775Z,97829.56
2023-03-20T12:33:50.159Z,97825.44
2023-03-20T12:36:31.023Z,97825.59
2023-03-20T12:39:03.291Z,97821.09
2023-03-20T12:42:15.274Z,97820.65
2023-03-20T12:45:11.625Z,97822.58
2023-03-20T12:48:33.390Z,97825.44
2023-03-20T12:51:19.474Z,97825.31
2023-03-20T12:54:10.899Z,97819.41
2023-03-20T12:57:02.928Z,97815.30
2023-03-20T12:59:51.042Z,97811.02
2023-03-20T13:03:13.281Z,97803.80
2023-03-20T13:06:11.560Z,97800.36
2023-03-20T13:08:48.033Z,97793.64
2023-03-20T13:11:48.936Z,97791.34
2023-03-20T13:14:45.225Z,97790.83
2023-03-20T13:18:09.393Z,97785.61
2023-03-20T13:20:53.070Z,97777.83
2023-03-20T13:23:47.586Z,97771.45
2023-03-20T13:26:19.487Z,97768.92
2023-03-20T13:29:05.044Z,97763.13
2023-03-20T13:32:00.324Z,97757.92
2023-03-20T13:34:47.874Z,97753.15
2023-03-20T13:37:28.199Z,97753.73
2023-03-20T13:40:15.770Z,97751.20
2023-03-20T13:43:00.376Z,97750.05
2023-03-20T13:45:40.112Z,97744.96
2023-03-20T13:48:40.883Z,97741.25
2023-03-20T13:51:57.150Z,97742.92
2023-03-20T13:54:48.233Z,97746.86
2023-03-20T13:57:44.580Z,97742.39
2023-03-20T14:00:40.772Z,97738.89
2023-03-20T14:03:37.725Z,97733.06
2023-03-20T14:06:45.160Z,97734.27
2023-03-20T14:09:36.544Z,97730.67
2023-03-20T14:12:12.537Z,97730.06
2023-03-20T14:14:51.370Z,97731.00
2023-03-20T14:17:24.637Z,97729.78
2023-03-20T14:19:55.983Z,97733.70
2023-03-20T14:22:39.500Z,97732.63
2023-03-20T14:25:20.426Z,97732.77
2023-03-20T14:27:59.425Z,97728.48
2023-03-20T14:30:31.558Z,97726.49
2023-03-20T14:33:15.631Z,97725.66
2023-03-20T14:35:49.533Z,97727.73
2023-03-20T14:38:33.696Z,97723.40
2023-03-20T14:41:29.514Z,97718.48
2023-03-20T14:44:09.438Z,97714.71
2023-03-20T14:46:42.677Z,97720.13
2023-03-20T14:49:31.816Z,97724.91
2023-03-20T14:52:16.912Z,97728.46
2023-03-20T14:54:55.156Z,97725.52
2023-03-20T14:57:37.564Z,97727.82
2023-03-20T15:00:30.503Z,97727.42
2023-03-20T15:03:12.089Z,97724.92
2023-03-20T15:05:41.215Z,97724.69
2023-03-20T15:08:20.893Z,97720.25
2023-03-20T15:10:55.774Z,97714.54
2023-03-20T15:13:31.653Z,97715.53
2023-03-20T15:16:13.211Z,97717.35
2023-03-20T15:18:51.350Z,97715.92
2023-03-20T15:21:33.558Z,97718.05
2023-03-20T15:24:02.650Z,97719.85
2023-03-20T15:26:35.794Z,97722.35
2023-03-20T15:29:08.325Z,97725.21
2023-03-20T15:31:41.424Z,97724.90
2023-03-20T15:34:19.090Z,97722.67
2023-03-20T15:36:49.215Z,97720.05
2023-03-20T15:39:42.456Z,97725.89
2023-03-20T15:42:17.597Z,97725.59
2023-03-20T15:44:52.455Z,97721.23
2023-03-20T15:47:24.883Z,97721.65
2023-03-20T15:50:00.716Z,97725.62
2023-03-20T15:52:40.142Z,97727.59
2023-03-20T15:55:18.399Z,97730.74
2023-03-20T15:57:50.762Z,97732.22
2023-03-20T16:00:23.296Z,97738.17
2023-03-20T16:03:14.867Z,97734.45
2023-03-20T16:05:46.705Z,97735.36
2023-03-20T16:08:28.838Z,97739.19
2023-03-20T16:11:14.529Z,97742.39
2023-03-20T16:13:47.477Z,97742.08
2023-03-20T16:16:21.885Z,97741.29
2023-03-20T16:18:55.416Z,97735.27
2023-03-20T16:21:32.943Z,97737.45
2023-03-20T16:24:09.893Z,97742.00
2023-03-20T16:26:45.011Z,97742.34
2023-03-20T16:29:16.111Z,97745.58
2023-03-20T16:31:59.008Z,97748.84
2023-03-20T16:34:35.955Z,97748.92
2023-03-20T16:37:25.862Z,97750.69
2023-03-20T16:40:20.090Z,97746.68
2023-03-20T16:42:55.520Z,97752.52
2023-03-20T16:45:35.628Z,97754.59
2023-03-20T16:48:13.737Z,97754.20
2023-03-20T16:50:53.758Z,97754.52
2023-03-20T16:53:35.793Z,97752.52
2023-03-20T16:56:06.814Z,97752.27
2023-03-20T16:58:44.609Z,97753.77
2023-03-20T17:01:30.332Z,97757.10
2023-03-20T17:04:44.119Z,97758.74
2023-03-20T17:07:20.088Z,97758.55
2023-03-20T17:10:00.168Z,97757.77
2023-03-20T17:12:34.364Z,97757.94
2023-03-20T17:15:03.918Z,97763.70
2023-03-20T17:17:34.348Z,97766.98
2023-03-20T17:20:08.760Z,97766.89
2023-03-20T17:22:41.323Z,97768.98
2023-03-20T17:25:11.995Z,97770.30
2023-03-20T17:28:00.081Z,97772.11
2023-03-20T17:30:29.829Z,97772.19
2023-03-20T17:33:05.256Z,97775.08
2023-03-20T17:35:37.853Z,97777.90
2023-03-20T17:38:28.384Z,97776.11
2023-03-20T17:41:17.112Z,97777.08
2023-03-20T17:43:52.499Z,97776.70
2023-03-20T17:46:53.820Z,97773.66
2023-03-20T17:49:28.693Z,97775.48
2023-03-20T17:51:59.380Z,97775.25
2023-03-20T17:54:29.176Z,97780.87
2023-03-20T17:57:01.932Z,97782.52
2023-03-20T17:59:31.783Z,97779.44
2023-03-20T18:02:01.567Z,97779.46
2023-03-20T18:04:30.977Z,97782.77
2023-03-20T18:07:02.695Z,97782.45
2023-03-20T18:09:33.749Z,97779.31
2023-03-20T18:12:02.866Z,97781.10
2023-03-20T18:14:32.109Z,97781.46
2023-03-20T18:17:02.025Z,97781.42
2023-03-20T18:19:31.634Z,97786.13
2023-03-20T18:22:01.796Z,97786.98
2023-03-20T18:24:31.557Z,97790.91
2023-03-20T18:27:01.950Z,97789.83
2023-03-20T18:29:31.654Z,97793.14
2023-03-20T18:32:01.350Z,97788.36
2023-03-20T18:34:31.606Z,97788.31
2023-03-20T18:37:25.933Z,97790.77
2023-03-20T18:43:29.869Z,97791.30
2023-03-20T18:46:03.126Z,97792.81
2023-03-20T18:48:34.595Z,97790.09
2023-03-20T18:51:07.330Z,97792.02
2023-03-20T18:53:36.605Z,97791.22
2023-03-20T18:56:18.577Z,97794.00
2023-03-20T18:58:54.035Z,97786.11
2023-03-20T19:01:27.580Z,97797.55
2023-03-20T19:03:57.517Z,97797.90
2023-03-20T19:06:32.898Z,97798.77
2023-03-20T19:09:05.479Z,97801.04
2023-03-20T19:11:39.186Z,97797.85
2023-03-20T19:14:10.901Z,97798.62
2023-03-20T19:16:41.676Z,97800.50
2023-03-20T19:19:16.009Z,97796.77
2023-03-20T19:21:45.134Z,97800.55
2023-03-20T19:24:15.119Z,97802.48
2023-03-20T19:26:46.951Z,97807.95
2023-03-20T19:29:18.710Z,97806.08
2023-03-20T19:31:48.367Z,97807.52
2023-03-20T19:35:00.801Z,97806.77
2023-03-20T19:37:13.330Z,97807.00
2023-03-20T19:39:42.634Z,97808.56
2023-03-20T19:42:46.862Z,97809.18
2023-03-20T19:45:01.632Z,97804.41
2023-03-20T19:47:31.025Z,97808.53
2023-03-20T19:50:06.596Z,97805.39
2023-03-20T19:52:37.153Z,97804.68
2023-03-20T19:55:06.612Z,97802.90
2023-03-20T19:57:37.777Z,97806.06
2023-03-20T20:03:02.535Z,97803.70
2023-03-20T20:05:41.594Z,97805.17
2023-03-20T20:08:27.634Z,97805.16
2023-03-20T20:11:01.413Z,97804.77
2023-03-20T20:13:33.158Z,97804.52
2023-03-20T20:16:02.751Z,97805.24
2023-03-20T20:18:32.636Z,97799.83
2023-03-20T20:23:52.790Z,97794.23
2023-03-20T20:26:23.068Z,97794.95
2023-03-20T20:28:52.330Z,97792.56
2023-03-20T20:31:30.666Z,97795.79
2023-03-20T20:34:45.297Z,97794.77
2023-03-20T20:37:42.326Z,97790.92
2023-03-20T20:39:39.167Z,97791.30
2023-03-20T20:42:08.737Z,97795.59
2023-03-20T20:44:40.121Z,97795.84
2023-03-20T20:47:10.601Z,97791.90
2023-03-20T20:49:39.908Z,97788.13
2023-03-20T20:52:11.374Z,97786.38
2023-03-20T20:54:42.573Z,97785.90
2023-03-20T20:57:13.011Z,97785.79
2023-03-20T20:59:43.231Z,97781.17
2023-03-20T21:02:13.260Z,97778.33
2023-03-20T21:04:44.942Z,97778.34
2023-03-20T21:07:15.020Z,97776.46
2023-03-20T21:09:44.130Z,97775.93
2023-03-20T21:12:32.383Z,97773.08
2023-03-20T21:15:06.023Z,97769.92
2023-03-20T21:17:35.593Z,97771.23
2023-03-20T21:20:05.425Z,97773.39
2023-03-20T21:22:37.717Z,97770.30
2023-03-20T21:25:14.953Z,97769.02
2023-03-20T21:27:45.903Z,97769.45
2023-03-20T21:30:15.981Z,97766.33
2023-03-20T21:32:45.529Z,97769.95
2023-03-20T21:35:17.105Z,97773.30
2023-03-20T21:38:45.227Z,97772.80
2023-03-20T21:40:36.034Z,97763.21
2023-03-20T21:43:06.382Z,97765.15
2023-03-20T21:49:27.884Z,97764.56
2023-03-20T21:52:20.113Z,97764.77
2023-03-20T21:57:42.738Z,97755.45
2023-03-20T22:00:31.688Z,97758.03
2023-03-20T22:02:39.121Z,97761.63
2023-03-20T22:08:57.765Z,97761.23
2023-03-20T22:23:04.804Z,97757.95
2023-03-20T22:25:46.398Z,97759.57
2023-03-20T22:28:43.247Z,97760.83
2023-03-20T22:34:24.052Z,97762.95
2023-03-20T22:42:43.622Z,97768.41
2023-03-20T22:45:01.810Z,97766.64
2023-03-20T22:47:33.085Z,97759.84
2023-03-20T22:50:02.799Z,97765.17
2023-03-20T22:52:47.596Z,97766.52
2023-03-20T22:55:18.162Z,97768.67
2023-03-20T22:58:03.835Z,97763.62
2023-03-20T23:00:38.454Z,97763.02
2023-03-20T23:03:22.358Z,97760.53
2023-03-20T23:05:58.158Z,97762.70
2023-03-20T23:08:28.585Z,97764.46
2023-03-20T23:10:58.525Z,97763.05
2023-03-20T23:13:27.908Z,97764.23
2023-03-20T23:15:57.195Z,97764.80
2023-03-20T23:18:28.111Z,97763.16
2023-03-20T23:21:00.159Z,97764.76
2023-03-20T23:23:31.273Z,97761.77
2023-03-20T23:26:12.995Z,97762.14
2023-03-20T23:28:44.363Z,97759.34
2023-03-20T23:31:23.322Z,97758.23
2023-03-20T23:33:56.468Z,97759.27
2023-03-20T23:36:42.460Z,97759.65
2023-03-20T23:39:14.307Z,97760.50
2023-03-20T23:42:05.096Z,97757.73
2023-03-20T23:44:35.026Z,97756.70
2023-03-20T23:47:19.684Z,97756.73
2023-03-20T23:49:53.267Z,97759.25
2023-03-20T23:52:22.459Z,97759.17
2023-03-20T23:54:52.196Z,97755.80
2023-03-20T23:57:21.373Z,97752.88
2023-03-20T23:59:52.879Z,97752.79
